LZIBLZKZ

Guest
Details From LZIB - Bratislava/M.R. Stefanik
To LZKZ - KOSICE
Flight Number -
Tags generated
Created
Modified
Stats Distance 163 nm / 302 km
Max Altitude 21,700 ft / 6,614 m
Waypoints 5
Social Downloads 1
Likes 0
Share VATSIM

Download

Looking for another format? Having issues loading an existing format? Contact us
Advertisement - Login to hide

Notes

Basic altitude profile: - Ascent Rate: 2500ft/min - Ascent Speed: 250kts - Cruise Altitude: 35000ft - Cruise Speed: 420kts - Descent Rate: 1500ft/min - Descent Speed: 250kts Options: - Use NATs: yes - Use PACOTS: yes - Use low airways: yes - Use high airways: no

Route

LZIB NIT A42 ULPIS LZKZ

ID Type Via Altitude Latitude Longitude Leg Dist Tot Dist Heading (true) Name
O LZIB APT - 0 ft / 0 m 48.16831˚ 17.21560˚ - 0 nm - Bratislava/M.R. Stefanik
NIT VOR - 11,200 ft / 3,414 m 48.29044˚ 18.05064˚ 34 nm 34 nm 77° / 78° NITRA VOR-DME
ABITU FIX A42 (AWY-LO) 15,200 ft / 4,633 m 48.33333˚ 18.32472˚ 11 nm 45 nm 77° / 77° -
ULPIS FIX A42 (AWY-LO) 21,700 ft / 6,614 m 48.39361˚ 18.71639˚ 16 nm 61 nm 77° / 77° -
O LZKZ APT - 0 ft / 0 m 48.66303˚ 21.24115˚ 101 nm 163 nm 80° / 82° KOSICE

Altitude Profile

Advertisement - Login to hide

Weather


0- 5 10 15 20 25 30 35+ Temperature / ° C

Clouds and Precipitation
Forecast for 2017-12-18 12:00 UTC. Updated 2 hours ago

Ground ~20,000 ft ~40,000 ft Winds

LZIB

Details ICAO LZIB (BTS)
Name Bratislava/M.R. Stefanik
Region Slovakia
Timezone Europe/Bratislava (UTC+1.0)
Stats Elevation 436 ft / 133 m (AMSL)
Location 48.168314° 17.215597°
Runways 2
Magnetic Variation 4.406° E

METAR

LZIB 181100Z 31005KT 9999 FEW040 BKN071 02/M03 Q1024 NOSIG

Decode

TAF

Not found

Departure Runways

ID Width Length Bearing (true) Bearing (mag) Surface Threshold Offset Overrun Length
04 197 ft / 60 m 9,540 ft / 2,908 m 43.80° 39.39° Concrete 0 ft / 0 m 7 ft / 2 m
13 148 ft / 45 m 9,688 ft / 2,953 m 134.02° 129.61° Concrete 0 ft / 0 m 98 ft / 30 m
22 197 ft / 60 m 9,540 ft / 2,908 m 223.82° 219.41° Concrete 0 ft / 0 m 49 ft / 15 m
31 148 ft / 45 m 9,688 ft / 2,953 m 314.04° 309.63° Concrete 0 ft / 0 m 810 ft / 247 m

LZKZ

Details ICAO LZKZ (KSC)
Name KOSICE
Region Slovakia
Timezone Europe/Bratislava (UTC+1.0)
Stats Elevation 755 ft / 230 m (AMSL)
Location 48.663030° 21.241155°
Runways 1
Magnetic Variation 5.332° E

METAR

LZKZ 181100Z 01016KT 9999 FEW030 02/M05 Q1021 NOSIG

Decode

TAF

Not found

Destination Runways

ID Width Length Bearing (true) Bearing (mag) Surface Threshold Offset Overrun Length
01 148 ft / 45 m 10,174 ft / 3,101 m 13.00° 7.67° Asphalt 0 ft / 0 m 0 ft / 0 m
19 148 ft / 45 m 10,174 ft / 3,101 m 193.00° 187.67° Asphalt 0 ft / 0 m 0 ft / 0 m

Approach Navaids

Runway Type Ident Frequency Range Bearing (true) Bearing (mag) Slope Elevation
01 Localiser KE 109.50 MHz 18 nm / 33 km 13.00° 7.67° - 739 ft / 225 m (AMSL)
01 Glidescope KE 109.50 MHz 10 nm / 19 km 13.00° 7.67° 3.00° 739 ft / 225 m (AMSL)

Popular Alternatives